Time;durP1;ratioP1;P1;durP2;ratioP2;P2;SDS_P1;SDS_P2;PMS_P1;PMS_P2;Temp;Humidity;BMP_temperature;BMP_pressure;BME280_temperature;BME280_humidity;BME280_pressure;Samples;Min_cycle;Max_cycle;Signal;HPM_P1;HPM_P2
2022/09/19 00:01:17;;;;;;;1.67;0.70;;;;;;;;;;5016487;28;20535;-66
2022/09/19 00:03:46;;;;;;;1.85;0.40;;;;;;;;;;5015598;28;20500;-67
2022/09/19 00:06:15;;;;;;;0.40;0.40;;;;;;;;;;5000403;28;20152;-66
2022/09/19 00:08:43;;;;;;;0.50;0.50;;;;;;;;;;4999911;28;20128;-66
2022/09/19 00:11:11;;;;;;;1.10;0.43;;;;;;;;;;5000035;28;20289;-68
2022/09/19 00:13:48;;;;;;;0.25;0.25;;;;;;;;;;5033630;28;20053;-67
2022/09/19 00:16:25;;;;;;;2.17;0.40;;;;;;;;;;4986165;28;20057;-67
2022/09/19 00:18:54;;;;;;;0.30;0.30;;;;;;;;;;5000390;28;20046;-67
2022/09/19 00:21:21;;;;;;;0.30;0.30;;;;;;;;;;5015864;28;20053;-68
2022/09/19 00:26:33;;;;;;;1.75;0.40;;;;;;;;;;5018644;28;20464;-67
2022/09/19 00:29:00;;;;;;;0.43;0.20;;;;;;;;;;5015703;28;20053;-67
2022/09/19 00:31:27;;;;;;;1.70;0.40;;;;;;;;;;5033262;28;20107;-67
2022/09/19 00:33:54;;;;;;;0.30;0.30;;;;;;;;;;5032999;28;20045;-66
2022/09/19 00:36:21;;;;;;;0.50;0.20;;;;;;;;;;5015853;28;20459;-67
2022/09/19 00:38:48;;;;;;;0.30;0.30;;;;;;;;;;4999420;28;20476;-67
2022/09/19 00:41:16;;;;;;;0.20;0.20;;;;;;;;;;5015772;28;20567;-67
2022/09/19 00:43:46;;;;;;;0.20;0.20;;;;;;;;;;4999651;28;20049;-67
2022/09/19 00:46:13;;;;;;;0.15;0.15;;;;;;;;;;5032930;28;20088;-68
2022/09/19 00:48:41;;;;;;;0.35;0.20;;;;;;;;;;4998917;28;20473;-67
2022/09/19 00:51:13;;;;;;;0.30;0.17;;;;;;;;;;4999550;28;20072;-67
2022/09/19 00:53:40;;;;;;;0.20;0.10;;;;;;;;;;5032733;28;20417;-67
2022/09/19 00:56:06;;;;;;;1.55;0.38;;;;;;;;;;4999163;28;20053;-67
2022/09/19 00:58:35;;;;;;;0.85;0.30;;;;;;;;;;4998862;28;20050;-67
2022/09/19 01:01:02;;;;;;;0.40;0.40;;;;;;;;;;4998935;28;20543;-67
2022/09/19 01:03:29;;;;;;;0.30;0.20;;;;;;;;;;5015165;28;20049;-67
2022/09/19 01:06:08;;;;;;;0.50;0.30;;;;;;;;;;5015262;28;20053;-67
2022/09/19 01:08:52;;;;;;;0.32;0.30;;;;;;;;;;5014848;28;20084;-67
2022/09/19 01:11:22;;;;;;;0.38;0.30;;;;;;;;;;5015164;28;20463;-67
2022/09/19 01:13:59;;;;;;;0.35;0.35;;;;;;;;;;5015209;28;20099;-66
2022/09/19 01:16:34;;;;;;;0.20;0.20;;;;;;;;;;4999100;28;20132;-67
2022/09/19 01:19:08;;;;;;;0.90;0.30;;;;;;;;;;4999273;28;20465;-67
2022/09/19 01:21:40;;;;;;;0.43;0.10;;;;;;;;;;5014908;28;20046;-67
2022/09/19 01:24:19;;;;;;;0.25;0.20;;;;;;;;;;4984197;28;20053;-66
2022/09/19 01:27:09;;;;;;;0.10;0.10;;;;;;;;;;5032760;28;20080;-67
2022/09/19 01:29:49;;;;;;;0.43;0.20;;;;;;;;;;4978508;28;20428;-67
2022/09/19 01:32:18;;;;;;;0.22;0.22;;;;;;;;;;5032335;28;20424;-68
2022/09/19 01:34:53;;;;;;;1.58;0.28;;;;;;;;;;4999126;28;20475;-67
2022/09/19 01:37:27;;;;;;;0.77;0.30;;;;;;;;;;4998754;28;20479;-67
2022/09/19 01:39:55;;;;;;;1.70;0.22;;;;;;;;;;4999306;28;20050;-67
2022/09/19 01:42:22;;;;;;;0.35;0.20;;;;;;;;;;4998548;28;20140;-67
2022/09/19 01:44:50;;;;;;;0.90;0.20;;;;;;;;;;5014574;28;20384;-67
2022/09/19 01:47:41;;;;;;;0.93;0.30;;;;;;;;;;5032156;28;20103;-67
2022/09/19 01:50:37;;;;;;;0.17;0.10;;;;;;;;;;5014588;28;20128;-67
2022/09/19 01:53:33;;;;;;;0.30;0.20;;;;;;;;;;5016991;28;20139;-67
2022/09/19 01:56:22;;;;;;;1.55;0.10;;;;;;;;;;5015409;28;20128;-67
2022/09/19 01:59:11;;;;;;;2.58;0.30;;;;;;;;;;4998075;28;20076;-66
2022/09/19 02:01:46;;;;;;;1.30;0.35;;;;;;;;;;4978609;28;20128;-67
2022/09/19 02:04:21;;;;;;;0.38;0.30;;;;;;;;;;5014583;28;20060;-67
2022/09/19 02:07:12;;;;;;;0.90;0.32;;;;;;;;;;5014539;28;20053;-67
2022/09/19 02:09:46;;;;;;;2.53;0.32;;;;;;;;;;5014279;28;20042;-67
2022/09/19 02:12:16;;;;;;;1.58;0.35;;;;;;;;;;5014833;28;20081;-68
2022/09/19 02:14:44;;;;;;;0.82;0.30;;;;;;;;;;4999288;28;20053;-67
2022/09/19 02:17:13;;;;;;;1.27;0.50;;;;;;;;;;5014859;28;20049;-68
2022/09/19 02:19:45;;;;;;;0.50;0.40;;;;;;;;;;4998483;28;20048;-66
2022/09/19 02:22:20;;;;;;;0.88;0.40;;;;;;;;;;5014212;28;20119;-65
2022/09/19 02:24:47;;;;;;;1.65;0.57;;;;;;;;;;4998592;28;20084;-66
2022/09/19 02:27:21;;;;;;;3.28;0.70;;;;;;;;;;4999292;28;20538;-65
2022/09/19 02:29:57;;;;;;;0.93;0.45;;;;;;;;;;5018342;28;20046;-65
2022/09/19 02:32:24;;;;;;;0.40;0.40;;;;;;;;;;5035811;28;20123;-66
2022/09/19 02:34:53;;;;;;;0.80;0.43;;;;;;;;;;5002289;28;20056;-66
2022/09/19 02:37:35;;;;;;;0.63;0.40;;;;;;;;;;5002166;28;20071;-66
2022/09/19 02:40:28;;;;;;;1.55;0.50;;;;;;;;;;5003440;28;20128;-65
2022/09/19 02:43:14;;;;;;;2.92;0.50;;;;;;;;;;5009350;28;20049;-66
2022/09/19 02:45:43;;;;;;;1.48;0.45;;;;;;;;;;5035353;28;20049;-65
2022/09/19 02:48:13;;;;;;;1.50;0.50;;;;;;;;;;5001556;28;20128;-66
2022/09/19 02:50:47;;;;;;;1.38;0.47;;;;;;;;;;5035152;28;20133;-64
2022/09/19 02:53:26;;;;;;;1.73;0.40;;;;;;;;;;5002102;28;20050;-66
2022/09/19 02:55:56;;;;;;;1.13;0.60;;;;;;;;;;5018139;28;20107;-65
2022/09/19 02:58:23;;;;;;;0.80;0.45;;;;;;;;;;5001718;28;20092;-66
2022/09/19 03:00:52;;;;;;;2.88;0.80;;;;;;;;;;5001408;28;20103;-65
2022/09/19 03:06:09;;;;;;;1.85;0.60;;;;;;;;;;5006790;28;20049;-66
2022/09/19 03:08:36;;;;;;;1.20;0.47;;;;;;;;;;4985464;28;20045;-66
2022/09/19 03:11:07;;;;;;;2.75;0.55;;;;;;;;;;5035251;28;20522;-67
2022/09/19 03:13:38;;;;;;;3.80;0.50;;;;;;;;;;5001641;28;20053;-67
2022/09/19 03:16:11;;;;;;;0.88;0.50;;;;;;;;;;5002251;28;20079;-66
2022/09/19 03:18:39;;;;;;;4.20;0.57;;;;;;;;;;5017890;28;20415;-65
2022/09/19 03:21:08;;;;;;;5.22;0.60;;;;;;;;;;4985224;28;20145;-66
2022/09/19 03:23:41;;;;;;;1.65;0.47;;;;;;;;;;5001032;28;20053;-65
2022/09/19 03:26:10;;;;;;;2.67;0.40;;;;;;;;;;5001047;28;20053;-65
2022/09/19 03:28:37;;;;;;;2.13;0.40;;;;;;;;;;5034275;28;20487;-65
2022/09/19 03:31:04;;;;;;;1.33;0.50;;;;;;;;;;5016723;28;20085;-65
2022/09/19 03:33:31;;;;;;;3.50;0.50;;;;;;;;;;5016909;28;20099;-66
2022/09/19 03:36:02;;;;;;;2.55;0.50;;;;;;;;;;5034447;28;20531;-65
2022/09/19 03:38:30;;;;;;;2.28;0.73;;;;;;;;;;5033682;28;20085;-66
2022/09/19 03:40:57;;;;;;;2.17;0.60;;;;;;;;;;5016651;28;20054;-65
2022/09/19 03:43:23;;;;;;;5.38;0.57;;;;;;;;;;5016465;28;20049;-65
2022/09/19 03:45:50;;;;;;;4.13;1.30;;;;;;;;;;5034392;28;20103;-64
2022/09/19 03:48:17;;;;;;;3.72;0.50;;;;;;;;;;5033987;28;20089;-65
2022/09/19 03:50:43;;;;;;;2.80;0.50;;;;;;;;;;5016608;28;20132;-66
2022/09/19 03:53:11;;;;;;;1.65;0.70;;;;;;;;;;5033828;28;20056;-65
2022/09/19 03:55:38;;;;;;;1.88;0.60;;;;;;;;;;5016647;28;20056;-66
2022/09/19 03:58:05;;;;;;;3.17;0.75;;;;;;;;;;4999879;28;20557;-65
2022/09/19 04:00:31;;;;;;;1.70;0.68;;;;;;;;;;5033761;28;20068;-65
2022/09/19 04:02:58;;;;;;;2.70;0.60;;;;;;;;;;5016462;28;20068;-66
2022/09/19 04:05:25;;;;;;;2.40;0.75;;;;;;;;;;5034120;28;20079;-65
2022/09/19 04:07:52;;;;;;;4.55;0.60;;;;;;;;;;5016248;28;20203;-66
2022/09/19 04:10:18;;;;;;;4.85;0.70;;;;;;;;;;5033659;28;20077;-66
2022/09/19 04:12:45;;;;;;;2.05;0.60;;;;;;;;;;5033541;28;20571;-65
2022/09/19 04:15:11;;;;;;;4.68;0.93;;;;;;;;;;5033770;28;20439;-65
2022/09/19 04:17:38;;;;;;;2.83;1.02;;;;;;;;;;5033860;28;20053;-66
2022/09/19 04:20:10;;;;;;;3.63;1.33;;;;;;;;;;5016418;28;20477;-66
2022/09/19 04:22:37;;;;;;;4.05;0.82;;;;;;;;;;5033661;28;20088;-65
2022/09/19 04:25:05;;;;;;;1.67;0.60;;;;;;;;;;5034228;28;20651;-66
2022/09/19 04:27:31;;;;;;;5.15;0.70;;;;;;;;;;5018900;28;20057;-66
2022/09/19 04:29:59;;;;;;;5.25;0.82;;;;;;;;;;5046339;28;20077;-67
2022/09/19 04:32:25;;;;;;;4.80;0.70;;;;;;;;;;5047665;28;20049;-66
2022/09/19 04:34:55;;;;;;;3.95;0.60;;;;;;;;;;5048350;28;20050;-66
2022/09/19 04:37:22;;;;;;;3.88;1.40;;;;;;;;;;5039056;28;20103;-67
2022/09/19 04:39:48;;;;;;;6.60;1.50;;;;;;;;;;5015217;28;20436;-66
2022/09/19 04:42:16;;;;;;;4.10;1.05;;;;;;;;;;5015700;28;20095;-68
2022/09/19 04:44:43;;;;;;;2.70;0.75;;;;;;;;;;5015557;28;20084;-66
2022/09/19 04:47:10;;;;;;;4.03;0.63;;;;;;;;;;5015405;28;20081;-67
2022/09/19 04:49:40;;;;;;;4.75;2.13;;;;;;;;;;5032713;28;20578;-66
2022/09/19 04:52:12;;;;;;;3.47;0.60;;;;;;;;;;5032841;28;20571;-67
2022/09/19 04:54:39;;;;;;;3.40;0.77;;;;;;;;;;4999788;28;20136;-66
2022/09/19 04:57:07;;;;;;;3.90;0.93;;;;;;;;;;5015234;28;20053;-67
2022/09/19 04:59:34;;;;;;;3.00;0.80;;;;;;;;;;5015166;28;20054;-66
2022/09/19 05:02:01;;;;;;;7.85;1.42;;;;;;;;;;5015301;28;20077;-66
2022/09/19 05:04:29;;;;;;;4.22;1.30;;;;;;;;;;5015052;28;20049;-66
2022/09/19 05:06:55;;;;;;;4.18;1.20;;;;;;;;;;5015189;28;20087;-66
2022/09/19 05:09:22;;;;;;;2.83;0.90;;;;;;;;;;5015201;28;20050;-67
2022/09/19 05:11:49;;;;;;;3.58;0.85;;;;;;;;;;5032557;28;20429;-67
2022/09/19 05:14:16;;;;;;;4.78;0.73;;;;;;;;;;5015129;28;20057;-66
2022/09/19 05:16:42;;;;;;;5.07;0.90;;;;;;;;;;5032365;28;20132;-66
2022/09/19 05:19:09;;;;;;;4.85;1.20;;;;;;;;;;5032187;28;20049;-67
2022/09/19 05:21:36;;;;;;;5.78;1.05;;;;;;;;;;4998874;28;20092;-66
2022/09/19 05:24:03;;;;;;;3.83;1.38;;;;;;;;;;5014952;28;20045;-65
2022/09/19 05:26:30;;;;;;;2.65;0.90;;;;;;;;;;4999119;28;20053;-66
2022/09/19 05:28:56;;;;;;;3.65;0.52;;;;;;;;;;5032823;28;20053;-66
2022/09/19 05:31:24;;;;;;;3.90;1.30;;;;;;;;;;5032435;28;20111;-66
2022/09/19 05:33:51;;;;;;;6.22;1.05;;;;;;;;;;5032194;28;20045;-66
2022/09/19 05:36:20;;;;;;;7.57;1.42;;;;;;;;;;5032406;28;20248;-66
2022/09/19 05:38:48;;;;;;;5.15;0.93;;;;;;;;;;5014303;28;20088;-66
2022/09/19 05:41:16;;;;;;;3.95;0.93;;;;;;;;;;5014919;28;20045;-66
2022/09/19 05:43:43;;;;;;;3.13;1.08;;;;;;;;;;5033682;28;20050;-65
2022/09/19 05:46:10;;;;;;;4.38;1.27;;;;;;;;;;5049849;28;20496;-67
2022/09/19 05:48:37;;;;;;;4.07;0.85;;;;;;;;;;5049080;28;20045;-66
2022/09/19 05:51:04;;;;;;;8.15;1.10;;;;;;;;;;5052186;28;20061;-65
2022/09/19 05:56:16;;;;;;;4.70;0.98;;;;;;;;;;5032037;28;20048;-68
2022/09/19 05:58:42;;;;;;;7.68;1.73;;;;;;;;;;5032051;28;20476;-67
2022/09/19 06:01:10;;;;;;;7.20;1.40;;;;;;;;;;5031826;28;20132;-68
2022/09/19 06:03:38;;;;;;;6.20;0.85;;;;;;;;;;5013918;28;20534;-68
2022/09/19 06:06:08;;;;;;;10.60;1.85;;;;;;;;;;5032018;28;20108;-68
2022/09/19 06:08:36;;;;;;;6.55;1.20;;;;;;;;;;5031726;28;20053;-68
2022/09/19 06:11:02;;;;;;;3.65;0.88;;;;;;;;;;5031666;28;20045;-68
2022/09/19 06:14:13;;;;;;;7.45;1.90;;;;;;;;;;5031516;28;20096;-68
2022/09/19 06:16:17;;;;;;;4.75;1.05;;;;;;;;;;5031756;28;20049;-68
2022/09/19 06:18:44;;;;;;;6.10;1.00;;;;;;;;;;5031714;28;20081;-68
2022/09/19 06:21:12;;;;;;;3.38;0.98;;;;;;;;;;5031758;28;20081;-68
2022/09/19 06:23:42;;;;;;;6.63;1.52;;;;;;;;;;5031549;28;20128;-68
2022/09/19 06:26:09;;;;;;;9.32;1.40;;;;;;;;;;5031568;28;20470;-68
2022/09/19 06:28:35;;;;;;;6.35;1.10;;;;;;;;;;5031418;28;20076;-68
2022/09/19 06:31:03;;;;;;;9.02;1.60;;;;;;;;;;5031455;28;20132;-68
2022/09/19 06:33:31;;;;;;;4.60;1.13;;;;;;;;;;5031511;28;20046;-68
2022/09/19 06:36:01;;;;;;;10.80;1.27;;;;;;;;;;5031783;28;20136;-67
2022/09/19 06:38:30;;;;;;;8.52;1.75;;;;;;;;;;5031316;28;20050;-68
2022/09/19 06:40:57;;;;;;;8.65;1.75;;;;;;;;;;5031746;28;20095;-67
2022/09/19 06:43:26;;;;;;;5.43;1.00;;;;;;;;;;5031610;28;20053;-68
2022/09/19 06:45:52;;;;;;;5.00;1.90;;;;;;;;;;5031590;28;20045;-68
2022/09/19 06:48:20;;;;;;;10.82;1.48;;;;;;;;;;5031500;28;20129;-68
2022/09/19 06:50:47;;;;;;;6.82;1.35;;;;;;;;;;5031279;28;20563;-67
2022/09/19 06:53:14;;;;;;;5.47;1.00;;;;;;;;;;5031108;28;20092;-68
2022/09/19 06:55:41;;;;;;;5.82;1.67;;;;;;;;;;5031603;28;20188;-68
2022/09/19 06:58:13;;;;;;;6.05;2.08;;;;;;;;;;5031324;28;20080;-68
2022/09/19 07:00:41;;;;;;;9.27;1.38;;;;;;;;;;5031275;28;20092;-68
2022/09/19 07:03:09;;;;;;;8.90;1.30;;;;;;;;;;5031273;28;20543;-68
2022/09/19 07:05:38;;;;;;;9.30;1.40;;;;;;;;;;5031176;28;20045;-68
2022/09/19 07:08:04;;;;;;;6.32;1.27;;;;;;;;;;5031368;28;20510;-68
2022/09/19 07:10:31;;;;;;;5.00;1.30;;;;;;;;;;5031044;28;20140;-68
2022/09/19 07:13:01;;;;;;;7.38;1.23;;;;;;;;;;5031057;28;20088;-68
2022/09/19 07:15:32;;;;;;;6.20;1.65;;;;;;;;;;5033716;28;20049;-68
2022/09/19 07:17:59;;;;;;;3.92;1.00;;;;;;;;;;5035345;28;20136;-68
2022/09/19 07:20:26;;;;;;;9.15;1.35;;;;;;;;;;5019118;28;20050;-68
2022/09/19 07:23:09;;;;;;;6.18;1.20;;;;;;;;;;5036194;28;20076;-68
2022/09/19 07:25:39;;;;;;;4.82;1.23;;;;;;;;;;5034584;28;20045;-68
2022/09/19 07:28:08;;;;;;;8.45;1.10;;;;;;;;;;5034473;28;20049;-68
2022/09/19 07:30:35;;;;;;;7.82;1.50;;;;;;;;;;5016613;28;20566;-68
2022/09/19 07:33:03;;;;;;;5.32;1.30;;;;;;;;;;5034596;28;20082;-68
2022/09/19 07:35:33;;;;;;;8.30;1.35;;;;;;;;;;5034549;28;20049;-68
2022/09/19 07:38:02;;;;;;;4.72;1.38;;;;;;;;;;5034173;28;20046;-68
2022/09/19 07:40:29;;;;;;;5.93;1.58;;;;;;;;;;5034202;28;20081;-68
2022/09/19 07:43:02;;;;;;;9.75;1.90;;;;;;;;;;5034120;28;20045;-68
2022/09/19 07:45:32;;;;;;;10.50;1.63;;;;;;;;;;5034540;28;20057;-68
2022/09/19 07:48:01;;;;;;;7.10;1.50;;;;;;;;;;5017337;28;20077;-68
2022/09/19 07:50:28;;;;;;;9.45;2.05;;;;;;;;;;5034127;28;20046;-68
2022/09/19 07:53:25;;;;;;;7.57;1.23;;;;;;;;;;5033983;28;20096;-68
2022/09/19 07:55:53;;;;;;;7.13;1.50;;;;;;;;;;5016952;28;20136;-68
2022/09/19 07:58:21;;;;;;;6.38;1.17;;;;;;;;;;5033890;28;20050;-68
2022/09/19 08:00:49;;;;;;;6.78;1.70;;;;;;;;;;5033880;28;20515;-69
2022/09/19 08:03:17;;;;;;;6.60;1.38;;;;;;;;;;5033786;28;20080;-68
2022/09/19 08:05:46;;;;;;;8.20;1.23;;;;;;;;;;5033863;28;20045;-68
2022/09/19 08:08:14;;;;;;;9.93;1.30;;;;;;;;;;5033796;28;20096;-68
2022/09/19 08:10:41;;;;;;;10.70;2.83;;;;;;;;;;5016424;28;20084;-68
2022/09/19 08:13:14;;;;;;;9.75;1.52;;;;;;;;;;5033789;28;20132;-68
2022/09/19 08:15:43;;;;;;;8.90;1.23;;;;;;;;;;5033929;28;20454;-68
2022/09/19 08:18:14;;;;;;;8.07;1.95;;;;;;;;;;5015939;28;20091;-68
2022/09/19 08:20:41;;;;;;;6.55;1.50;;;;;;;;;;5015841;28;20092;-68
2022/09/19 08:23:16;;;;;;;7.40;1.25;;;;;;;;;;5033280;28;20137;-68
2022/09/19 08:25:46;;;;;;;8.23;1.52;;;;;;;;;;5015940;28;20132;-67
2022/09/19 08:28:17;;;;;;;7.20;1.88;;;;;;;;;;5016410;28;20129;-67
2022/09/19 08:30:45;;;;;;;7.95;1.40;;;;;;;;;;5033214;28;20095;-68
2022/09/19 08:33:11;;;;;;;3.20;0.95;;;;;;;;;;5033245;28;20053;-68
2022/09/19 08:35:39;;;;;;;7.88;1.38;;;;;;;;;;5033500;28;20045;-67
2022/09/19 08:38:07;;;;;;;8.80;2.00;;;;;;;;;;5033496;28;20049;-68
2022/09/19 08:40:45;;;;;;;4.93;1.10;;;;;;;;;;5033622;28;20049;-67
2022/09/19 08:43:38;;;;;;;4.07;1.13;;;;;;;;;;5002904;28;20124;-68
2022/09/19 08:46:15;;;;;;;6.93;2.10;;;;;;;;;;5058757;28;20057;-68
2022/09/19 08:48:50;;;;;;;6.47;1.80;;;;;;;;;;5041645;28;20042;-68
2022/09/19 08:51:21;;;;;;;7.57;1.42;;;;;;;;;;5058444;28;20068;-69
2022/09/19 08:53:51;;;;;;;7.97;2.30;;;;;;;;;;5041808;28;20041;-68
2022/09/19 08:56:19;;;;;;;8.93;1.63;;;;;;;;;;5041331;28;20048;-69
2022/09/19 08:59:05;;;;;;;9.15;2.50;;;;;;;;;;5041758;28;20029;-69
2022/09/19 09:01:34;;;;;;;9.85;2.40;;;;;;;;;;5041860;28;20060;-68
2022/09/19 09:04:11;;;;;;;9.40;2.13;;;;;;;;;;5058402;28;20068;-69
2022/09/19 09:07:08;;;;;;;8.30;1.75;;;;;;;;;;5058180;28;20053;-68
2022/09/19 09:09:47;;;;;;;7.13;1.80;;;;;;;;;;5041697;28;20063;-68
2022/09/19 09:12:44;;;;;;;4.75;1.40;;;;;;;;;;5058428;28;20057;-68
2022/09/19 09:15:24;;;;;;;6.53;1.80;;;;;;;;;;5029198;28;20049;-68
2022/09/19 09:18:48;;;;;;;6.55;2.22;;;;;;;;;;5005816;28;20504;-68
2022/09/19 09:21:25;;;;;;;8.60;2.20;;;;;;;;;;5033884;28;20069;-68
2022/09/19 09:24:01;;;;;;;3.95;1.38;;;;;;;;;;5016286;28;20492;-68
2022/09/19 09:26:49;;;;;;;9.20;2.25;;;;;;;;;;5006814;28;20219;-68
2022/09/19 09:29:27;;;;;;;5.95;1.75;;;;;;;;;;4999582;28;20049;-68
2022/09/19 09:31:57;;;;;;;5.00;1.20;;;;;;;;;;5000832;28;20041;-68
2022/09/19 09:34:35;;;;;;;3.92;1.38;;;;;;;;;;5015877;28;20405;-69
2022/09/19 09:37:19;;;;;;;3.70;1.10;;;;;;;;;;5014589;28;20049;-69
2022/09/19 09:40:12;;;;;;;6.72;1.40;;;;;;;;;;4998884;28;20057;-69
2022/09/19 09:42:47;;;;;;;4.32;1.20;;;;;;;;;;5017379;28;20041;-69
2022/09/19 09:45:21;;;;;;;6.60;1.75;;;;;;;;;;4998847;28;20103;-69
2022/09/19 09:47:50;;;;;;;5.03;1.02;;;;;;;;;;4998761;28;20089;-69
2022/09/19 09:50:39;;;;;;;6.45;1.20;;;;;;;;;;5032004;28;20057;-69
2022/09/19 09:53:36;;;;;;;5.57;1.67;;;;;;;;;;5017247;28;20053;-69
2022/09/19 09:56:29;;;;;;;5.88;1.35;;;;;;;;;;5032363;28;20119;-69
2022/09/19 09:59:04;;;;;;;3.72;1.45;;;;;;;;;;5021391;28;20119;-69
2022/09/19 10:04:51;;;;;;;5.55;1.70;;;;;;;;;;5003541;28;20147;-68
2022/09/19 10:07:24;;;;;;;6.70;2.00;;;;;;;;;;5032290;28;20140;-68
2022/09/19 10:10:00;;;;;;;6.75;1.40;;;;;;;;;;5031772;28;20531;-68
2022/09/19 10:12:32;;;;;;;4.63;1.80;;;;;;;;;;4998612;28;20095;-68
2022/09/19 10:15:20;;;;;;;5.25;1.48;;;;;;;;;;5018353;28;20056;-68
2022/09/19 10:17:49;;;;;;;4.65;1.42;;;;;;;;;;5014421;28;20057;-69
2022/09/19 10:20:22;;;;;;;8.60;1.52;;;;;;;;;;4998147;28;20493;-69
2022/09/19 10:22:54;;;;;;;6.47;1.40;;;;;;;;;;5015454;28;20049;-69
2022/09/19 10:25:21;;;;;;;6.80;1.45;;;;;;;;;;5031579;28;20571;-68
2022/09/19 10:27:49;;;;;;;4.50;1.17;;;;;;;;;;5031574;28;20144;-68
2022/09/19 10:30:24;;;;;;;7.00;1.92;;;;;;;;;;5031547;28;20056;-68
2022/09/19 10:32:52;;;;;;;7.00;1.95;;;;;;;;;;5031808;28;20127;-69
2022/09/19 10:35:37;;;;;;;3.53;1.27;;;;;;;;;;5031615;28;20140;-69
2022/09/19 10:38:15;;;;;;;3.85;1.10;;;;;;;;;;5031418;28;20144;-68
2022/09/19 10:40:55;;;;;;;3.70;1.25;;;;;;;;;;5031650;28;20128;-69
2022/09/19 10:43:40;;;;;;;5.35;1.60;;;;;;;;;;5023424;28;20068;-68
2022/09/19 10:46:07;;;;;;;6.88;1.17;;;;;;;;;;5028808;28;20045;-68
2022/09/19 10:48:38;;;;;;;4.65;1.38;;;;;;;;;;4999945;28;20087;-68
2022/09/19 10:51:08;;;;;;;3.35;0.90;;;;;;;;;;5035596;28;20148;-68
2022/09/19 10:53:38;;;;;;;4.82;1.30;;;;;;;;;;5002038;28;20081;-68
2022/09/19 10:56:26;;;;;;;4.00;1.08;;;;;;;;;;5018363;28;20480;-69
2022/09/19 10:59:04;;;;;;;6.95;1.10;;;;;;;;;;5017649;28;20524;-68
2022/09/19 11:01:31;;;;;;;6.13;1.00;;;;;;;;;;5017965;28;20053;-69
2022/09/19 11:04:05;;;;;;;3.05;0.90;;;;;;;;;;5034888;28;20132;-69
2022/09/19 11:06:33;;;;;;;3.83;0.90;;;;;;;;;;5017419;28;20053;-69
2022/09/19 11:09:00;;;;;;;5.85;1.02;;;;;;;;;;5034697;28;20571;-69
2022/09/19 11:11:45;;;;;;;4.22;0.80;;;;;;;;;;5017294;28;20084;-69
2022/09/19 11:14:26;;;;;;;1.73;0.88;;;;;;;;;;5035001;28;20136;-69
2022/09/19 11:17:02;;;;;;;1.55;0.65;;;;;;;;;;5034847;28;20064;-70
2022/09/19 11:19:31;;;;;;;5.00;1.60;;;;;;;;;;5035038;28;20061;-68
2022/09/19 11:22:07;;;;;;;3.08;1.40;;;;;;;;;;5034745;28;20050;-68
2022/09/19 11:24:54;;;;;;;3.70;1.42;;;;;;;;;;5017202;28;20049;-68
2022/09/19 11:27:31;;;;;;;5.72;1.25;;;;;;;;;;5017161;28;20079;-68
2022/09/19 11:30:23;;;;;;;3.38;1.17;;;;;;;;;;5016895;28;20053;-68
2022/09/19 11:33:06;;;;;;;2.58;1.23;;;;;;;;;;5017356;28;20184;-68
2022/09/19 11:35:45;;;;;;;;;;;;;;;;;;5002382;28;20053;-69
2022/09/19 11:38:46;;;;;;;3.50;0.90;;;;;;;;;;5034334;28;20383;-68
2022/09/19 11:41:57;;;;;;;4.03;0.77;;;;;;;;;;5034196;28;20144;-68
2022/09/19 11:44:39;;;;;;;3.03;0.90;;;;;;;;;;5034218;28;20564;-68
2022/09/19 11:47:25;;;;;;;3.60;0.85;;;;;;;;;;5034431;28;20103;-68
2022/09/19 11:50:14;;;;;;;2.90;1.25;;;;;;;;;;5034047;28;20061;-68
2022/09/19 11:52:55;;;;;;;2.88;0.85;;;;;;;;;;5034164;28;20056;-68
2022/09/19 11:55:43;;;;;;;5.07;1.08;;;;;;;;;;5053672;23;20102;-67
2022/09/19 11:58:28;;;;;;;2.78;1.13;;;;;;;;;;5016730;28;20466;-67
2022/09/19 12:01:10;;;;;;;3.38;0.85;;;;;;;;;;5016124;28;20127;-67
2022/09/19 12:04:02;;;;;;;6.03;1.33;;;;;;;;;;5033822;28;20132;-68
2022/09/19 12:06:43;;;;;;;3.33;1.20;;;;;;;;;;5018729;28;20049;-67
2022/09/19 12:09:12;;;;;;;1.65;0.70;;;;;;;;;;5016140;28;20049;-68
2022/09/19 12:11:42;;;;;;;4.78;0.85;;;;;;;;;;5033698;28;20124;-67
2022/09/19 12:14:17;;;;;;;4.30;0.90;;;;;;;;;;5033985;28;20057;-67
2022/09/19 12:16:55;;;;;;;2.15;1.00;;;;;;;;;;5033916;28;20484;-66
2022/09/19 12:19:29;;;;;;;6.57;1.20;;;;;;;;;;4984140;28;20085;-67
2022/09/19 12:21:58;;;;;;;6.15;1.15;;;;;;;;;;5000479;28;20045;-67
2022/09/19 12:24:52;;;;;;;3.13;0.82;;;;;;;;;;4983886;28;20057;-67
2022/09/19 12:27:40;;;;;;;5.25;0.93;;;;;;;;;;4988986;28;20539;-67
2022/09/19 12:30:13;;;;;;;5.65;1.15;;;;;;;;;;4999884;28;20049;-67
2022/09/19 12:32:40;;;;;;;3.07;0.87;;;;;;;;;;5015740;28;20500;-67
2022/09/19 12:35:16;;;;;;;6.05;1.15;;;;;;;;;;5015724;28;20492;-66
2022/09/19 12:37:58;;;;;;;3.63;1.30;;;;;;;;;;5033241;28;20491;-68
2022/09/19 12:40:47;;;;;;;3.72;1.20;;;;;;;;;;5033359;28;20050;-67
2022/09/19 12:43:41;;;;;;;3.55;1.00;;;;;;;;;;5001176;28;20099;-67
2022/09/19 12:46:27;;;;;;;3.25;1.00;;;;;;;;;;5033381;28;20483;-67
2022/09/19 12:49:17;;;;;;;7.78;1.13;;;;;;;;;;5033009;28;20538;-67
2022/09/19 12:51:53;;;;;;;4.55;1.13;;;;;;;;;;5015558;28;20457;-67
2022/09/19 12:54:39;;;;;;;3.10;0.80;;;;;;;;;;5015502;28;20060;-68
2022/09/19 12:57:15;;;;;;;3.63;0.90;;;;;;;;;;4999899;28;20049;-67
2022/09/19 12:59:41;;;;;;;2.47;0.80;;;;;;;;;;4999578;28;20309;-68
2022/09/19 13:02:20;;;;;;;3.58;0.95;;;;;;;;;;4999293;28;20397;-67
2022/09/19 13:04:52;;;;;;;1.15;0.68;;;;;;;;;;5016429;28;20084;-67
2022/09/19 13:07:30;;;;;;;6.43;1.27;;;;;;;;;;5033186;28;20416;-67
2022/09/19 13:10:24;;;;;;;3.17;0.70;;;;;;;;;;4999610;28;20447;-67
2022/09/19 13:13:02;;;;;;;3.00;0.73;;;;;;;;;;5017978;28;20054;-67
2022/09/19 13:15:49;;;;;;;3.22;0.70;;;;;;;;;;5014982;28;20096;-67
2022/09/19 13:23:52;;;;;;;4.25;1.23;;;;;;;;;;5003814;28;20041;-66
2022/09/19 13:26:24;;;;;;;3.17;1.13;;;;;;;;;;4998702;28;20524;-67
2022/09/19 13:28:55;;;;;;;2.65;0.60;;;;;;;;;;4998853;28;20056;-68
2022/09/19 13:31:42;;;;;;;3.88;0.60;;;;;;;;;;4982832;28;20072;-66
2022/09/19 13:35:00;;;;;;;2.13;0.70;;;;;;;;;;5017519;28;20072;-67
2022/09/19 13:37:32;;;;;;;3.60;0.77;;;;;;;;;;4920575;29;20051;-68
2022/09/19 13:40:06;;;;;;;2.45;0.93;;;;;;;;;;5010591;28;20045;-68
2022/09/19 13:42:40;;;;;;;3.45;0.70;;;;;;;;;;5015276;28;20492;-68
2022/09/19 13:45:35;;;;;;;3.03;1.02;;;;;;;;;;5015279;28;20049;-67
2022/09/19 13:48:29;;;;;;;2.72;1.38;;;;;;;;;;5031969;28;20042;-67
2022/09/19 13:51:32;;;;;;;2.88;1.02;;;;;;;;;;4999576;28;20072;-67
2022/09/19 13:54:18;;;;;;;3.13;0.65;;;;;;;;;;5014830;28;20069;-68
2022/09/19 13:57:04;;;;;;;3.10;1.00;;;;;;;;;;5031924;28;20148;-67
2022/09/19 13:59:37;;;;;;;5.05;1.15;;;;;;;;;;5001143;28;20049;-68
2022/09/19 14:02:05;;;;;;;2.17;0.70;;;;;;;;;;5014429;28;20084;-66
2022/09/19 14:04:52;;;;;;;6.55;0.98;;;;;;;;;;5031713;28;20054;-67
2022/09/19 14:07:25;;;;;;;2.92;0.80;;;;;;;;;;5016811;28;20061;-67
2022/09/19 14:10:12;;;;;;;5.80;1.30;;;;;;;;;;5031648;28;20545;-69
2022/09/19 14:12:49;;;;;;;4.80;1.17;;;;;;;;;;5031679;28;20107;-68
2022/09/19 14:15:54;;;;;;;3.03;0.80;;;;;;;;;;5014091;28;20180;-67
2022/09/19 14:18:40;;;;;;;2.90;0.80;;;;;;;;;;5031605;28;20550;-66
2022/09/19 14:21:11;;;;;;;1.30;0.60;;;;;;;;;;5014199;28;20045;-67
2022/09/19 14:23:42;;;;;;;1.10;0.43;;;;;;;;;;4999683;28;20049;-68
2022/09/19 14:26:12;;;;;;;1.80;0.30;;;;;;;;;;5018747;28;20045;-68
2022/09/19 14:29:17;;;;;;;2.35;0.30;;;;;;;;;;5018092;28;20099;-68
2022/09/19 14:32:06;;;;;;;0.70;0.30;;;;;;;;;;5035742;28;20107;-68
2022/09/19 14:34:49;;;;;;;2.63;1.02;;;;;;;;;;5035550;28;20064;-68
2022/09/19 14:37:37;;;;;;;1.77;0.52;;;;;;;;;;5036026;28;20058;-68
2022/09/19 14:40:19;;;;;;;2.58;0.50;;;;;;;;;;5035490;28;20072;-69
2022/09/19 14:43:14;;;;;;;1.27;0.52;;;;;;;;;;5018331;28;20080;-67
2022/09/19 14:46:12;;;;;;;0.80;0.70;;;;;;;;;;5017876;28;20080;-68
2022/09/19 14:49:14;;;;;;;2.15;0.80;;;;;;;;;;5035340;28;20049;-68
2022/09/19 14:52:00;;;;;;;2.80;0.68;;;;;;;;;;5004662;28;20093;-68
2022/09/19 14:54:35;;;;;;;2.03;1.10;;;;;;;;;;5003168;28;20101;-68
2022/09/19 14:57:13;;;;;;;1.80;1.40;;;;;;;;;;5002286;28;20104;-68
2022/09/19 14:59:40;;;;;;;2.40;1.48;;;;;;;;;;5002587;28;20554;-68
2022/09/19 15:02:18;;;;;;;4.82;1.10;;;;;;;;;;5035417;28;20045;-67
2022/09/19 15:04:49;;;;;;;2.88;1.33;;;;;;;;;;5003111;28;20451;-68
2022/09/19 15:07:15;;;;;;;4.03;1.70;;;;;;;;;;5018113;28;20057;-68
2022/09/19 15:09:44;;;;;;;5.15;1.80;;;;;;;;;;5035010;28;20085;-68
2022/09/19 15:12:16;;;;;;;1.63;1.00;;;;;;;;;;5017327;28;20052;-67
2022/09/19 15:14:47;;;;;;;2.83;1.17;;;;;;;;;;5017093;28;20053;-68
2022/09/19 15:17:37;;;;;;;4.47;0.88;;;;;;;;;;5034666;28;20080;-68
2022/09/19 15:20:12;;;;;;;3.05;0.93;;;;;;;;;;5020198;28;20485;-68
2022/09/19 15:22:54;;;;;;;2.95;1.20;;;;;;;;;;5017306;28;20053;-68
2022/09/19 15:25:30;;;;;;;3.13;1.30;;;;;;;;;;5018230;28;20053;-68
2022/09/19 15:28:02;;;;;;;2.92;1.35;;;;;;;;;;5017011;28;20099;-68
2022/09/19 15:30:33;;;;;;;1.83;1.13;;;;;;;;;;5001981;28;20053;-67
2022/09/19 15:33:06;;;;;;;3.97;1.30;;;;;;;;;;5017100;28;20091;-68
2022/09/19 15:35:35;;;;;;;2.30;1.10;;;;;;;;;;4984952;28;20061;-67
2022/09/19 15:38:12;;;;;;;2.35;1.02;;;;;;;;;;5034250;28;20487;-68
2022/09/19 15:40:38;;;;;;;2.20;1.20;;;;;;;;;;5000994;28;20053;-69
2022/09/19 15:43:06;;;;;;;3.42;1.27;;;;;;;;;;5016978;28;20049;-67